Time;durP1;ratioP1;P1;durP2;ratioP2;P2;SDS_P1;SDS_P2;PMS_P1;PMS_P2;Temp;Humidity;BMP_temperature;BMP_pressure;BME280_temperature;BME280_humidity;BME280_pressure;Samples;Min_cycle;Max_cycle;Signal;HPM_P1;HPM_P2
2022/10/17 00:00:19;;;;;;;5.13;4.55;;;16.90;99.90;;;;;;5054734;28;20673;-84
2022/10/17 00:02:45;;;;;;;6.82;5.18;;;16.90;99.90;;;;;;5054106;28;20190;-88
2022/10/17 00:05:11;;;;;;;5.40;4.90;;;17.00;99.90;;;;;;5053992;28;20172;-86
2022/10/17 00:07:37;;;;;;;7.40;4.68;;;17.10;99.90;;;;;;5054431;28;20159;-79
2022/10/17 00:10:04;;;;;;;5.43;4.93;;;17.10;99.90;;;;;;5054215;28;20647;-83
2022/10/17 00:12:30;;;;;;;5.90;5.05;;;17.10;99.90;;;;;;5054219;28;20700;-84
2022/10/17 00:14:56;;;;;;;9.63;5.00;;;17.10;99.90;;;;;;5054084;28;20250;-81
2022/10/17 00:17:21;;;;;;;7.65;5.10;;;17.10;99.90;;;;;;5051885;28;20163;-79
2022/10/17 00:19:47;;;;;;;6.28;5.63;;;17.10;99.90;;;;;;5054134;28;20242;-86
2022/10/17 00:22:12;;;;;;;5.72;5.18;;;17.20;99.90;;;;;;5054580;28;20160;-87
2022/10/17 00:24:38;;;;;;;7.93;4.97;;;17.20;99.90;;;;;;5053046;28;20537;-79
2022/10/17 00:27:03;;;;;;;5.68;4.78;;;17.10;99.90;;;;;;5053058;28;20195;-79
2022/10/17 00:29:29;;;;;;;6.50;5.13;;;17.10;99.90;;;;;;5054566;28;20210;-83
2022/10/17 00:31:56;;;;;;;7.28;5.10;;;17.20;99.90;;;;;;5054351;28;20237;-86
2022/10/17 00:34:22;;;;;;;5.95;5.45;;;17.30;99.90;;;;;;5053770;28;20175;-87
2022/10/17 00:36:48;;;;;;;6.00;5.40;;;17.30;99.90;;;;;;5053720;28;20692;-84
2022/10/17 00:39:13;;;;;;;10.15;5.38;;;17.30;99.90;;;;;;5053878;28;20293;-85
2022/10/17 00:41:39;;;;;;;6.18;5.25;;;17.30;99.90;;;;;;5054227;28;20194;-79
2022/10/17 00:44:29;;;;;;;5.90;5.30;;;17.30;99.90;;;;;;5054015;28;20227;-87
2022/10/17 00:46:55;;;;;;;9.55;5.40;;;17.30;99.90;;;;;;5052088;28;20597;-83
2022/10/17 00:49:23;;;;;;;5.72;5.22;;;17.30;99.90;;;;;;5053751;28;20242;-86
2022/10/17 00:51:52;;;;;;;11.27;5.35;;;17.30;99.90;;;;;;5053765;28;20197;-86
2022/10/17 00:54:23;;;;;;;7.65;4.85;;;17.30;99.90;;;;;;5053565;28;20166;-87
2022/10/17 00:56:49;;;;;;;10.27;5.40;;;17.40;99.90;;;;;;5053255;28;20191;-78
2022/10/17 00:59:17;;;;;;;8.30;4.10;;;17.30;99.90;;;;;;5053221;28;20575;-77
2022/10/17 01:01:51;;;;;;;8.00;4.72;;;17.30;99.90;;;;;;5053484;28;20169;-79
2022/10/17 01:04:18;;;;;;;6.85;5.03;;;17.40;99.90;;;;;;5052404;28;20580;-87
2022/10/17 01:06:43;;;;;;;6.05;5.47;;;17.40;99.90;;;;;;5053160;28;20270;-84
2022/10/17 01:09:09;;;;;;;6.00;5.18;;;17.50;99.90;;;;;;5052445;28;20645;-78
2022/10/17 01:11:34;;;;;;;16.75;5.85;;;17.40;99.90;;;;;;5053277;28;20174;-86
2022/10/17 01:14:06;;;;;;;8.10;4.78;;;17.50;99.90;;;;;;5053211;28;20191;-84
2022/10/17 01:16:41;;;;;;;5.82;5.22;;;17.60;99.90;;;;;;5053131;28;20203;-87
2022/10/17 01:19:20;;;;;;;23.77;5.47;;;17.50;99.90;;;;;;5053278;28;20242;-85
2022/10/17 01:22:19;;;;;;;7.10;5.55;;;17.50;99.90;;;;;;5053085;28;20167;-82
2022/10/17 01:25:05;;;;;;;8.43;5.80;;;17.40;99.90;;;;;;5052482;28;20167;-85
2022/10/17 01:27:36;;;;;;;8.10;5.22;;;17.50;99.90;;;;;;5052887;28;20177;-87
2022/10/17 01:30:25;;;;;;;8.50;5.50;;;17.50;99.90;;;;;;5053312;28;20182;-83
2022/10/17 01:33:04;;;;;;;10.13;5.82;;;17.40;99.90;;;;;;5051743;28;20526;-86
2022/10/17 01:35:41;;;;;;;10.90;5.57;;;17.50;99.90;;;;;;5053053;28;20294;-85
2022/10/17 01:38:18;;;;;;;9.57;6.22;;;17.50;99.90;;;;;;5052932;28;20166;-84
2022/10/17 01:40:58;;;;;;;7.72;6.03;;;17.50;99.90;;;;;;5053223;28;20268;-86
2022/10/17 01:43:33;;;;;;;10.10;6.05;;;17.40;99.90;;;;;;5053195;28;20712;-84
2022/10/17 01:46:06;;;;;;;6.35;5.70;;;17.50;99.90;;;;;;5052174;28;20191;-87
2022/10/17 01:48:38;;;;;;;6.57;5.13;;;17.50;99.90;;;;;;5052877;28;20300;-86
2022/10/17 01:51:27;;;;;;;7.93;6.25;;;17.50;99.90;;;;;;5060133;28;20641;-80
2022/10/17 01:54:12;;;;;;;5.55;5.05;;;17.50;99.90;;;;;;5068814;28;20170;-80
2022/10/17 01:56:39;;;;;;;6.45;5.28;;;17.60;99.90;;;;;;5076209;28;20179;-78
2022/10/17 01:59:18;;;;;;;13.10;5.65;;;17.50;99.90;;;;;;5057346;28;20186;-87
2022/10/17 02:01:46;;;;;;;5.43;4.93;;;17.60;99.90;;;;;;5053631;28;20175;-81
2022/10/17 02:04:12;;;;;;;13.70;5.63;;;17.50;99.90;;;;;;5053087;28;20167;-84
2022/10/17 02:06:38;;;;;;;15.10;5.25;;;17.50;99.90;;;;;;5051055;28;20237;-86
2022/10/17 02:09:20;;;;;;;7.57;5.28;;;17.60;99.90;;;;;;5050987;28;20225;-82
2022/10/17 02:12:10;;;;;;;5.50;4.97;;;17.60;99.90;;;;;;5051109;28;20621;-87
2022/10/17 02:15:14;;;;;;;7.63;5.38;;;17.50;99.90;;;;;;5051047;28;20187;-84
2022/10/17 02:18:07;;;;;;;5.43;4.88;;;17.50;99.90;;;;;;5032540;28;20258;-78
2022/10/17 02:20:55;;;;;;;15.95;5.22;;;17.60;99.90;;;;;;5051188;28;20230;-86
2022/10/17 02:23:29;;;;;;;5.88;5.13;;;17.60;99.90;;;;;;5052565;28;20159;-88
2022/10/17 02:26:22;;;;;;;7.28;5.10;;;17.60;99.90;;;;;;5051118;28;20201;-87
2022/10/17 02:28:59;;;;;;;5.35;4.75;;;17.60;99.90;;;;;;5051951;28;20168;-83
2022/10/17 02:31:35;;;;;;;4.53;4.22;;;17.70;99.90;;;;;;5056276;28;20174;-80
2022/10/17 02:34:16;;;;;;;4.80;4.40;;;17.80;99.90;;;;;;5052899;28;20224;-81
2022/10/17 02:36:47;;;;;;;6.70;4.80;;;17.90;99.90;;;;;;5053227;28;20203;-88
2022/10/17 02:39:15;;;;;;;5.93;3.95;;;17.90;99.90;;;;;;5054518;28;20233;-82
2022/10/17 02:41:43;;;;;;;15.43;4.47;;;17.90;99.90;;;;;;5056083;28;20725;-82
2022/10/17 02:44:10;;;;;;;4.78;4.13;;;17.90;99.90;;;;;;5055348;28;20254;-84
2022/10/17 02:46:37;;;;;;;5.80;4.57;;;17.90;99.90;;;;;;5053681;28;20671;-78
2022/10/17 02:49:23;;;;;;;4.53;4.13;;;17.90;99.90;;;;;;5054464;28;20172;-87
2022/10/17 02:51:53;;;;;;;8.75;3.92;;;18.00;99.90;;;;;;5054976;28;20159;-80
2022/10/17 02:54:28;;;;;;;4.95;4.35;;;18.10;99.90;;;;;;5055168;28;20186;-79
2022/10/17 02:57:07;;;;;;;5.53;4.30;;;18.00;99.90;;;;;;5053862;28;20604;-78
2022/10/17 02:59:38;;;;;;;8.63;4.60;;;18.00;99.90;;;;;;5055452;28;20218;-86
2022/10/17 03:02:12;;;;;;;5.82;4.18;;;18.10;99.90;;;;;;5054989;28;20179;-85
2022/10/17 03:04:42;;;;;;;11.40;4.78;;;18.20;99.90;;;;;;5065683;28;20166;-77
2022/10/17 03:07:07;;;;;;;7.47;4.43;;;18.20;99.90;;;;;;5062279;28;20191;-82
2022/10/17 03:09:33;;;;;;;6.03;4.45;;;18.30;99.90;;;;;;5062419;28;20259;-79
2022/10/17 03:12:01;;;;;;;6.40;4.38;;;18.30;99.90;;;;;;5061878;28;20167;-83
2022/10/17 03:14:32;;;;;;;5.43;4.00;;;18.30;99.90;;;;;;5062301;28;20645;-78
2022/10/17 03:16:57;;;;;;;4.25;3.92;;;18.50;99.90;;;;;;5073607;28;20232;-82
2022/10/17 03:19:23;;;;;;;7.22;4.45;;;18.40;99.90;;;;;;5060350;28;20568;-85
2022/10/17 03:21:49;;;;;;;5.25;4.80;;;18.40;99.90;;;;;;5059552;28;20167;-84
2022/10/17 03:24:14;;;;;;;5.18;3.60;;;18.30;99.90;;;;;;5060095;28;20159;-84
2022/10/17 03:26:40;;;;;;;3.60;3.30;;;18.30;99.90;;;;;;5060651;28;20187;-79
2022/10/17 03:29:07;;;;;;;4.78;3.90;;;18.40;99.90;;;;;;5057649;28;20175;-79
2022/10/17 03:31:35;;;;;;;4.03;3.70;;;18.40;99.90;;;;;;5056129;28;20175;-86
2022/10/17 03:34:02;;;;;;;4.28;3.88;;;18.40;99.90;;;;;;5037280;28;20168;-83
2022/10/17 03:36:27;;;;;;;4.20;3.88;;;18.50;99.90;;;;;;5057977;28;20191;-78
2022/10/17 03:38:53;;;;;;;5.22;4.13;;;18.60;99.90;;;;;;5054062;28;20178;-80
2022/10/17 03:41:19;;;;;;;14.50;4.18;;;18.60;99.90;;;;;;5053792;28;20677;-79
2022/10/17 03:43:45;;;;;;;5.85;3.95;;;18.60;99.90;;;;;;5054036;28;20163;-79
2022/10/17 03:46:11;;;;;;;15.10;4.07;;;18.60;99.90;;;;;;5054382;28;20331;-78
2022/10/17 03:48:36;;;;;;;6.18;4.30;;;18.60;99.90;;;;;;5054821;28;20217;-85
2022/10/17 03:51:07;;;;;;;5.38;4.13;;;18.60;99.90;;;;;;5054445;28;20175;-82
2022/10/17 03:53:34;;;;;;;7.40;4.07;;;18.40;99.90;;;;;;5054664;28;20544;-78
2022/10/17 03:56:14;;;;;;;6.20;3.92;;;18.40;99.90;;;;;;5054209;28;20191;-82
2022/10/17 03:58:40;;;;;;;4.53;3.40;;;18.40;99.90;;;;;;5054392;28;20660;-79
2022/10/17 04:01:08;;;;;;;4.72;4.30;;;18.50;99.90;;;;;;5053843;28;20339;-78
2022/10/17 04:03:34;;;;;;;14.63;4.25;;;18.50;99.90;;;;;;5054343;28;20159;-79
2022/10/17 04:06:00;;;;;;;9.02;4.63;;;18.30;99.90;;;;;;5053814;28;20255;-79
2022/10/17 04:08:26;;;;;;;14.85;4.00;;;18.30;99.90;;;;;;5054375;28;20167;-79
2022/10/17 04:10:56;;;;;;;4.25;3.95;;;18.40;99.90;;;;;;5054508;28;20163;-78
2022/10/17 04:13:22;;;;;;;4.55;4.13;;;18.40;99.90;;;;;;5062098;28;20178;-84
2022/10/17 04:16:00;;;;;;;5.60;4.32;;;18.30;99.90;;;;;;5054091;28;20198;-77
2022/10/17 04:18:27;;;;;;;4.80;4.30;;;18.40;99.90;;;;;;5054181;28;20216;-78
2022/10/17 04:20:52;;;;;;;8.88;4.57;;;18.50;99.90;;;;;;5053843;28;20206;-86
2022/10/17 04:23:18;;;;;;;6.95;4.32;;;18.50;99.90;;;;;;5054425;28;20169;-84
2022/10/17 04:25:44;;;;;;;4.53;4.13;;;18.40;99.90;;;;;;5057563;28;20203;-78
2022/10/17 04:28:10;;;;;;;7.55;3.95;;;18.40;99.90;;;;;;5061873;28;20178;-78
2022/10/17 04:30:35;;;;;;;7.38;3.70;;;18.40;99.90;;;;;;5074485;28;20171;-80
2022/10/17 04:33:01;;;;;;;9.18;4.15;;;18.40;99.90;;;;;;5064915;28;20159;-78
2022/10/17 04:35:27;;;;;;;4.80;4.15;;;18.40;99.90;;;;;;5054830;28;20199;-79
2022/10/17 04:37:53;;;;;;;8.60;4.22;;;18.30;99.90;;;;;;5054021;28;20173;-80
2022/10/17 04:40:18;;;;;;;4.68;4.15;;;18.20;99.90;;;;;;5054018;28;20207;-80
2022/10/17 04:42:47;;;;;;;8.45;3.97;;;18.20;99.90;;;;;;5054111;28;20615;-86
2022/10/17 04:45:12;;;;;;;6.25;4.05;;;18.20;99.90;;;;;;5054169;28;20167;-82
2022/10/17 04:47:38;;;;;;;4.07;3.75;;;18.30;99.90;;;;;;5053968;28;20171;-88
2022/10/17 04:50:04;;;;;;;4.72;4.20;;;18.40;99.90;;;;;;5053831;28;20202;-82
2022/10/17 04:52:30;;;;;;;7.28;3.35;;;18.30;99.90;;;;;;5053795;28;20167;-81
2022/10/17 04:54:56;;;;;;;7.18;4.32;;;18.10;99.90;;;;;;5052843;28;20173;-79
2022/10/17 04:57:23;;;;;;;5.30;4.05;;;18.20;99.90;;;;;;5053708;28;20178;-82
2022/10/17 04:59:49;;;;;;;16.42;5.47;;;18.20;99.90;;;;;;5053030;28;20550;-78
2022/10/17 05:02:15;;;;;;;4.35;4.03;;;18.10;99.90;;;;;;5052230;28;20155;-79
2022/10/17 05:04:40;;;;;;;9.13;4.75;;;18.10;99.90;;;;;;5052770;28;20629;-78
2022/10/17 05:07:06;;;;;;;5.28;4.78;;;18.10;99.90;;;;;;5050956;28;20179;-78
2022/10/17 05:09:31;;;;;;;12.20;4.35;;;18.10;99.90;;;;;;5052248;28;20171;-78
2022/10/17 05:11:57;;;;;;;6.57;4.50;;;18.10;99.90;;;;;;5052568;28;20155;-78
2022/10/17 05:14:22;;;;;;;8.52;4.75;;;18.10;99.90;;;;;;5052479;28;20205;-78
2022/10/17 05:16:48;;;;;;;5.82;4.43;;;18.00;99.90;;;;;;5052695;28;20218;-78
2022/10/17 05:19:14;;;;;;;9.27;4.60;;;18.10;99.90;;;;;;5052462;28;20178;-78
2022/10/17 05:21:39;;;;;;;19.65;6.07;;;18.10;99.90;;;;;;5052715;28;20194;-78
2022/10/17 05:24:10;;;;;;;6.82;4.35;;;18.10;99.90;;;;;;5052191;28;20195;-78
2022/10/17 05:26:35;;;;;;;5.10;4.65;;;18.00;99.90;;;;;;5052155;28;20191;-78
2022/10/17 05:29:02;;;;;;;5.43;4.78;;;18.10;99.90;;;;;;5050935;28;20642;-78
2022/10/17 05:31:28;;;;;;;7.95;4.57;;;18.20;99.90;;;;;;5052462;28;20174;-88
2022/10/17 05:33:54;;;;;;;4.85;4.45;;;18.30;99.90;;;;;;5052423;28;20293;-78
2022/10/17 05:36:20;;;;;;;11.40;4.57;;;18.30;99.90;;;;;;5051987;28;20186;-78
2022/10/17 05:38:50;;;;;;;10.35;4.90;;;18.30;99.90;;;;;;5052411;28;20680;-78
2022/10/17 05:41:15;;;;;;;6.95;4.50;;;18.40;99.90;;;;;;5050783;28;20218;-78
2022/10/17 05:43:41;;;;;;;10.02;5.22;;;18.40;99.90;;;;;;5052288;28;20164;-79
2022/10/17 05:46:07;;;;;;;9.50;4.28;;;18.40;99.90;;;;;;5051612;28;20649;-82
2022/10/17 05:48:33;;;;;;;8.20;5.47;;;18.40;99.90;;;;;;5052187;28;20221;-80
2022/10/17 05:51:00;;;;;;;7.65;4.57;;;18.50;99.90;;;;;;5050474;28;20638;-78
2022/10/17 05:53:29;;;;;;;5.32;4.78;;;18.50;99.90;;;;;;5051506;28;20563;-81
2022/10/17 05:56:00;;;;;;;6.53;4.45;;;18.60;99.90;;;;;;5051800;28;20236;-78
2022/10/17 05:58:26;;;;;;;4.20;3.55;;;18.50;99.90;;;;;;5052200;28;20186;-80
2022/10/17 06:00:57;;;;;;;8.80;4.45;;;18.50;99.90;;;;;;5051326;28;20564;-77
2022/10/17 06:03:22;;;;;;;7.95;4.30;;;18.50;99.90;;;;;;5051616;28;20167;-78
2022/10/17 06:05:48;;;;;;;4.22;3.92;;;18.50;99.90;;;;;;5051851;28;20661;-82
2022/10/17 06:08:14;;;;;;;14.50;5.22;;;18.50;99.90;;;;;;5051578;28;20665;-77
2022/10/17 06:10:39;;;;;;;7.22;4.10;;;18.50;99.90;;;;;;5051987;28;20333;-80
2022/10/17 06:13:05;;;;;;;4.78;4.28;;;18.70;99.90;;;;;;5051657;28;20185;-77
2022/10/17 06:15:30;;;;;;;13.80;4.25;;;18.70;99.90;;;;;;5054519;28;20763;-77
2022/10/17 06:17:56;;;;;;;13.75;4.47;;;18.60;99.90;;;;;;5055299;28;20220;-77
2022/10/17 06:20:21;;;;;;;7.05;4.35;;;18.60;99.90;;;;;;5055252;28;20665;-78
2022/10/17 06:22:47;;;;;;;13.70;4.30;;;18.60;99.90;;;;;;5055465;28;20218;-77
2022/10/17 06:25:13;;;;;;;8.02;4.60;;;18.70;99.90;;;;;;5055027;28;20182;-77
2022/10/17 06:27:39;;;;;;;7.75;4.25;;;18.70;99.90;;;;;;5054902;28;20622;-78
2022/10/17 06:30:05;;;;;;;5.20;4.70;;;18.70;99.90;;;;;;5054768;28;20217;-77
2022/10/17 06:32:30;;;;;;;7.32;4.40;;;18.50;99.90;;;;;;5054553;28;20202;-78
2022/10/17 06:34:56;;;;;;;3.70;3.40;;;18.60;99.90;;;;;;5055032;28;20203;-78
2022/10/17 06:37:22;;;;;;;9.25;3.72;;;18.50;99.90;;;;;;5053286;28;20167;-78
2022/10/17 06:39:47;;;;;;;10.77;3.75;;;18.60;99.90;;;;;;5054738;28;20242;-80
2022/10/17 06:42:13;;;;;;;9.38;4.53;;;18.60;99.90;;;;;;5055261;28;20621;-87
2022/10/17 06:44:40;;;;;;;14.68;4.15;;;18.70;99.90;;;;;;5054018;28;20245;-80
2022/10/17 06:47:05;;;;;;;5.85;4.55;;;18.70;99.90;;;;;;5054913;28;20183;-80
2022/10/17 06:49:33;;;;;;;5.75;3.42;;;18.70;99.90;;;;;;5054161;28;20171;-80
2022/10/17 06:51:59;;;;;;;12.30;3.65;;;18.70;99.90;;;;;;5053579;28;20679;-80
2022/10/17 06:54:24;;;;;;;4.10;3.70;;;18.80;99.90;;;;;;5053513;28;20167;-79
2022/10/17 06:56:50;;;;;;;6.85;3.15;;;18.70;99.90;;;;;;5053610;28;20236;-80
2022/10/17 06:59:16;;;;;;;7.32;3.70;;;18.70;99.90;;;;;;5062216;28;20213;-81
2022/10/17 07:01:41;;;;;;;3.20;2.92;;;18.70;99.90;;;;;;5069741;28;20167;-84
2022/10/17 07:04:07;;;;;;;5.53;2.80;;;18.80;99.90;;;;;;5061382;28;20251;-80
2022/10/17 07:06:33;;;;;;;8.15;2.95;;;18.80;99.90;;;;;;5053916;28;20191;-87
2022/10/17 07:08:59;;;;;;;4.85;3.13;;;18.80;99.90;;;;;;5055357;28;20171;-82
2022/10/17 07:11:25;;;;;;;5.05;3.40;;;18.70;99.90;;;;;;5052818;28;20607;-78
2022/10/17 07:13:51;;;;;;;5.95;2.95;;;18.80;99.90;;;;;;5052208;28;20266;-78
2022/10/17 07:16:16;;;;;;;8.60;3.22;;;18.70;99.90;;;;;;5054226;28;20188;-79
2022/10/17 07:18:42;;;;;;;3.05;2.20;;;18.70;99.90;;;;;;5053837;28;20175;-78
2022/10/17 07:21:08;;;;;;;2.42;2.22;;;18.80;99.90;;;;;;5053816;28;20538;-78
2022/10/17 07:23:35;;;;;;;4.68;2.53;;;18.70;99.90;;;;;;5037316;28;20172;-78
2022/10/17 07:26:07;;;;;;;2.25;2.05;;;18.80;99.90;;;;;;5048031;28;20225;-85
2022/10/17 07:28:35;;;;;;;2.85;2.03;;;18.80;99.90;;;;;;5054366;28;20620;-78
2022/10/17 07:31:05;;;;;;;2.85;2.42;;;18.70;99.90;;;;;;5054073;28;20290;-77
2022/10/17 07:33:31;;;;;;;7.57;2.85;;;18.60;99.90;;;;;;5053624;28;20182;-78
2022/10/17 07:36:00;;;;;;;10.18;2.65;;;18.60;99.90;;;;;;5052169;28;20180;-83
2022/10/17 07:38:27;;;;;;;3.70;2.25;;;18.60;99.90;;;;;;5054116;28;20182;-79
2022/10/17 07:40:56;;;;;;;6.80;2.50;;;18.70;99.90;;;;;;5052773;28;20750;-80
2022/10/17 07:43:23;;;;;;;14.43;2.80;;;18.70;99.90;;;;;;5052175;28;20538;-79
2022/10/17 07:45:49;;;;;;;4.03;3.05;;;18.40;99.90;;;;;;5053877;28;20744;-87
2022/10/17 07:48:15;;;;;;;5.82;3.15;;;18.30;99.90;;;;;;5051307;28;20294;-81
2022/10/17 07:50:40;;;;;;;2.83;2.60;;;18.30;99.90;;;;;;5051896;28;20249;-80
2022/10/17 07:53:06;;;;;;;4.05;2.80;;;18.40;99.90;;;;;;5041040;28;20172;-81
2022/10/17 07:55:32;;;;;;;6.40;3.38;;;18.40;99.90;;;;;;5032284;28;20192;-79
2022/10/17 07:57:59;;;;;;;7.03;3.45;;;18.40;99.90;;;;;;5031848;28;20164;-76
2022/10/17 08:00:25;;;;;;;5.65;2.83;;;18.40;99.90;;;;;;5033240;28;20210;-81
2022/10/17 08:02:51;;;;;;;5.72;3.13;;;18.30;99.90;;;;;;5031794;28;20272;-78
2022/10/17 08:05:17;;;;;;;3.65;2.38;;;18.30;99.90;;;;;;5033808;28;20219;-78
2022/10/17 08:07:42;;;;;;;4.00;2.65;;;18.40;99.90;;;;;;5032377;28;20172;-81
2022/10/17 08:10:11;;;;;;;5.18;2.58;;;18.60;99.90;;;;;;5033128;28;20580;-79
2022/10/17 08:12:37;;;;;;;2.45;2.25;;;18.70;99.90;;;;;;5037352;28;20182;-78
2022/10/17 08:15:04;;;;;;;5.70;3.22;;;18.80;99.90;;;;;;5051921;28;20644;-78
2022/10/17 08:17:30;;;;;;;5.65;3.15;;;18.90;99.90;;;;;;5041770;28;20168;-78
2022/10/17 08:19:55;;;;;;;4.57;3.17;;;18.90;99.90;;;;;;5031673;28;20203;-78
2022/10/17 08:22:21;;;;;;;5.63;3.22;;;18.90;99.90;;;;;;5032182;28;20230;-79
2022/10/17 08:24:46;;;;;;;5.20;3.00;;;18.70;99.90;;;;;;5031738;28;20506;-78
2022/10/17 08:27:12;;;;;;;6.80;3.20;;;18.70;99.90;;;;;;5048529;28;20660;-78
2022/10/17 08:29:40;;;;;;;4.80;3.70;;;18.50;99.90;;;;;;5036626;28;20187;-78
2022/10/17 08:32:08;;;;;;;5.43;3.88;;;18.50;99.90;;;;;;5032805;28;20222;-79
2022/10/17 08:34:33;;;;;;;4.18;3.60;;;18.50;99.90;;;;;;5031888;28;20175;-78
2022/10/17 08:36:59;;;;;;;4.53;3.88;;;18.60;99.90;;;;;;5030200;28;20192;-78
2022/10/17 08:39:25;;;;;;;8.23;4.97;;;18.70;99.90;;;;;;5032365;28;20218;-77
2022/10/17 08:42:02;;;;;;;5.85;3.75;;;18.80;99.90;;;;;;5030804;28;20176;-77
2022/10/17 08:44:37;;;;;;;10.35;4.82;;;18.70;99.90;;;;;;5031922;28;20234;-77
2022/10/17 08:47:08;;;;;;;6.30;5.22;;;18.80;99.90;;;;;;5032055;28;20203;-81
2022/10/17 08:49:41;;;;;;;10.70;6.03;;;18.60;99.90;;;;;;5032101;28;20226;-79
2022/10/17 08:52:29;;;;;;;7.78;5.65;;;18.60;99.90;;;;;;5038302;28;20583;-80
2022/10/17 08:54:55;;;;;;;7.10;4.70;;;18.60;99.90;;;;;;5051246;28;20484;-91
2022/10/17 08:57:22;;;;;;;11.52;5.53;;;18.70;99.90;;;;;;5051188;28;20182;-83
2022/10/17 08:59:53;;;;;;;9.45;5.72;;;18.70;99.90;;;;;;5053840;28;20245;-82
2022/10/17 09:02:52;;;;;;;8.60;5.78;;;18.70;99.90;;;;;;5049667;28;20174;-85
2022/10/17 09:05:27;;;;;;;8.63;5.47;;;18.70;99.90;;;;;;5052092;28;20190;-78
2022/10/17 09:08:02;;;;;;;8.98;5.75;;;18.80;99.90;;;;;;5053048;28;20173;-78
2022/10/17 09:10:43;;;;;;;7.28;5.28;;;18.80;99.90;;;;;;5054448;28;20163;-78
2022/10/17 09:13:21;;;;;;;11.40;5.53;;;18.90;99.90;;;;;;5055013;28;20182;-93
2022/10/17 09:16:29;;;;;;;5.60;4.97;;;19.00;99.90;;;;;;5053105;28;20190;-84
2022/10/17 09:19:19;;;;;;;5.72;5.20;;;19.00;99.90;;;;;;5038780;28;20277;-83
2022/10/17 09:21:52;;;;;;;14.13;5.97;;;19.10;99.90;;;;;;5052011;28;20198;-81
2022/10/17 09:24:36;;;;;;;13.15;5.65;;;19.30;99.90;;;;;;5051191;28;20193;-81
2022/10/17 09:27:02;;;;;;;11.23;6.00;;;19.50;99.90;;;;;;5050726;28;20203;-81
2022/10/17 09:29:28;;;;;;;8.07;6.03;;;19.50;99.90;;;;;;5053230;28;20203;-81
2022/10/17 09:32:00;;;;;;;12.65;5.57;;;19.40;99.90;;;;;;5067763;28;20187;-81
2022/10/17 09:34:28;;;;;;;12.05;5.90;;;19.40;99.90;;;;;;5060790;28;20163;-80
2022/10/17 09:36:56;;;;;;;8.35;5.47;;;19.50;99.90;;;;;;5051938;28;20593;-81
2022/10/17 09:39:25;;;;;;;7.75;5.80;;;19.50;99.90;;;;;;5051284;28;20198;-81
2022/10/17 09:41:54;;;;;;;6.00;5.38;;;19.20;99.90;;;;;;5050714;28;20269;-81
2022/10/17 09:44:38;;;;;;;7.75;4.88;;;19.30;99.90;;;;;;5050440;28;20159;-80
2022/10/17 09:47:25;;;;;;;9.23;5.65;;;19.30;99.90;;;;;;5050759;28;20239;-81
2022/10/17 09:49:51;;;;;;;10.88;5.63;;;19.40;99.90;;;;;;5055453;28;20641;-82
2022/10/17 09:52:39;;;;;;;9.40;4.82;;;19.30;99.90;;;;;;5054732;28;20175;-78
2022/10/17 09:55:15;;;;;;;7.32;5.03;;;19.30;99.90;;;;;;5054058;28;20680;-78
2022/10/17 09:58:02;;;;;;;7.50;4.47;;;19.30;99.90;;;;;;5055283;28;20169;-78
2022/10/17 10:00:33;;;;;;;8.55;5.22;;;19.40;99.90;;;;;;5055279;28;20211;-79
2022/10/17 10:03:21;;;;;;;12.27;6.35;;;19.40;99.90;;;;;;5055333;28;20633;-79
2022/10/17 10:06:15;;;;;;;6.32;5.05;;;19.40;99.90;;;;;;5053915;28;20179;-79
2022/10/17 10:08:57;;;;;;;10.43;4.50;;;19.60;99.90;;;;;;5054023;28;20174;-79
2022/10/17 10:11:47;;;;;;;5.57;4.95;;;19.60;99.90;;;;;;5052770;28;20182;-79
2022/10/17 10:14:22;;;;;;;13.10;5.43;;;19.50;99.90;;;;;;5056837;28;20175;-86
2022/10/17 10:16:50;;;;;;;5.10;4.68;;;19.40;99.90;;;;;;5055514;28;20236;-85
2022/10/17 10:19:29;;;;;;;4.47;3.85;;;19.50;99.90;;;;;;5057049;28;20178;-85
2022/10/17 10:21:58;;;;;;;9.07;5.40;;;19.60;99.90;;;;;;5055448;28;20179;-81
2022/10/17 10:24:25;;;;;;;11.00;5.35;;;19.80;99.90;;;;;;5057224;28;20648;-80
2022/10/17 10:26:53;;;;;;;14.18;5.32;;;19.70;99.90;;;;;;5056004;28;20192;-81
2022/10/17 10:29:33;;;;;;;5.40;4.93;;;19.70;99.90;;;;;;5055496;28;20254;-80
2022/10/17 10:32:29;;;;;;;7.78;4.75;;;19.70;99.90;;;;;;5057084;28;20668;-90
2022/10/17 10:35:02;;;;;;;8.05;4.72;;;19.70;99.90;;;;;;5049779;28;20198;-79
2022/10/17 10:37:49;;;;;;;11.50;4.90;;;19.60;99.90;;;;;;5056280;28;20163;-79
2022/10/17 10:40:36;;;;;;;8.77;6.05;;;19.80;99.90;;;;;;5055694;28;20207;-83
2022/10/17 10:43:03;;;;;;;9.23;5.57;;;19.60;99.90;;;;;;5055125;28;20514;-79
2022/10/17 10:45:41;;;;;;;25.73;6.55;;;19.60;99.90;;;;;;5055814;28;20253;-82
2022/10/17 10:48:26;;;;;;;19.52;5.50;;;19.60;99.90;;;;;;5055049;28;20268;-79
2022/10/17 10:51:00;;;;;;;12.60;5.95;;;19.70;99.90;;;;;;5057741;28;20313;-83
2022/10/17 10:53:50;;;;;;;6.70;4.85;;;19.70;99.90;;;;;;5055644;28;20163;-82
2022/10/17 10:56:39;;;;;;;7.35;4.40;;;19.50;99.90;;;;;;5054147;28;20204;-80
2022/10/17 10:59:08;;;;;;;8.98;4.50;;;19.60;99.90;;;;;;5055017;28;20166;-93
2022/10/17 11:01:46;;;;;;;10.57;4.57;;;19.70;99.90;;;;;;5053214;28;20223;-91
2022/10/17 11:04:25;;;;;;;21.10;4.72;;;19.70;99.90;;;;;;5055421;28;20246;-80
2022/10/17 11:06:57;;;;;;;8.68;4.93;;;19.80;99.90;;;;;;5053833;28;20656;-82
2022/10/17 11:09:47;;;;;;;8.02;4.78;;;19.90;99.90;;;;;;5055709;28;20182;-80
2022/10/17 11:12:34;;;;;;;4.43;3.90;;;19.70;99.90;;;;;;5056153;28;20262;-87
2022/10/17 11:15:08;;;;;;;8.23;4.97;;;19.80;99.90;;;;;;5055612;28;20578;-80
2022/10/17 11:17:41;;;;;;;6.88;5.05;;;19.80;99.90;;;;;;5054313;28;20249;-80
2022/10/17 11:20:18;;;;;;;13.80;4.72;;;19.90;99.90;;;;;;5053549;28;20222;-84
2022/10/17 11:22:51;;;;;;;5.68;4.65;;;19.80;99.90;;;;;;5054791;28;20487;-82
2022/10/17 11:25:39;;;;;;;9.88;4.80;;;19.80;99.90;;;;;;5056235;28;20160;-90
2022/10/17 11:28:16;;;;;;;5.70;4.50;;;19.80;99.90;;;;;;5056335;28;20174;-86
2022/10/17 11:30:51;;;;;;;5.72;4.75;;;19.60;99.90;;;;;;5056705;28;20270;-85
2022/10/17 11:33:34;;;;;;;8.48;4.90;;;19.40;99.90;;;;;;5057436;28;20249;-85
2022/10/17 11:36:06;;;;;;;10.15;5.10;;;19.40;99.90;;;;;;5055851;28;20202;-79
2022/10/17 11:38:40;;;;;;;10.48;6.15;;;19.40;99.90;;;;;;5062124;28;20163;-88
2022/10/17 11:41:12;;;;;;;10.65;5.80;;;19.50;99.90;;;;;;5056536;28;20287;-87
2022/10/17 11:44:01;;;;;;;7.25;4.80;;;19.60;99.90;;;;;;5055891;28;20174;-88
2022/10/17 11:46:28;;;;;;;10.65;5.47;;;19.60;99.90;;;;;;5054875;28;20183;-87
2022/10/17 11:49:12;;;;;;;8.55;5.47;;;19.60;99.90;;;;;;5054637;28;20167;-78
2022/10/17 11:52:10;;;;;;;9.13;6.22;;;19.70;99.90;;;;;;5054111;28;20250;-78
2022/10/17 11:54:47;;;;;;;5.30;4.88;;;19.70;99.90;;;;;;5045956;28;20195;-78
2022/10/17 11:57:41;;;;;;;8.55;4.18;;;19.80;99.90;;;;;;5053761;28;20190;-77
2022/10/17 12:00:06;;;;;;;10.07;4.35;;;19.90;99.90;;;;;;5053567;28;20207;-79
2022/10/17 12:03:11;;;;;;;11.65;4.90;;;20.00;99.90;;;;;;5060552;28;20235;-78
2022/10/17 12:05:57;;;;;;;4.25;3.50;;;20.00;99.90;;;;;;5059854;28;20199;-79
2022/10/17 12:08:28;;;;;;;6.50;4.72;;;20.20;99.90;;;;;;5054677;28;20210;-79
2022/10/17 12:11:21;;;;;;;5.15;4.07;;;20.30;99.90;;;;;;5055542;28;20221;-88
2022/10/17 12:13:50;;;;;;;4.93;4.53;;;20.30;99.90;;;;;;5055611;28;20268;-89
2022/10/17 12:16:18;;;;;;;9.07;4.82;;;20.30;99.90;;;;;;5055732;28;20191;-80
2022/10/17 12:18:45;;;;;;;7.38;5.25;;;20.30;99.90;;;;;;5055310;28;20179;-84
2022/10/17 12:21:11;;;;;;;5.78;5.28;;;20.40;99.90;;;;;;5056844;28;20199;-93
2022/10/17 12:23:40;;;;;;;5.85;4.80;;;20.30;99.90;;;;;;5056287;28;20229;-92
2022/10/17 12:26:08;;;;;;;5.18;4.63;;;20.30;99.90;;;;;;5058121;28;20246;-91
2022/10/17 12:28:36;;;;;;;8.25;4.25;;;20.20;99.90;;;;;;5062357;28;20179;-90
2022/10/17 12:31:13;;;;;;;11.05;5.45;;;20.40;99.90;;;;;;5064928;28;20163;-87
2022/10/17 12:33:56;;;;;;;5.82;4.93;;;20.30;99.90;;;;;;5060271;28;20155;-85
2022/10/17 12:36:25;;;;;;;9.82;5.53;;;20.20;99.90;;;;;;5057171;28;20620;-91
2022/10/17 12:39:14;;;;;;;8.30;5.13;;;20.30;99.90;;;;;;5059577;28;20170;-92
2022/10/17 12:41:41;;;;;;;8.43;5.63;;;20.40;99.90;;;;;;5057991;28;20207;-90
2022/10/17 12:44:12;;;;;;;5.75;5.25;;;20.50;99.90;;;;;;5062106;28;20633;-90
2022/10/17 12:46:51;;;;;;;16.90;5.05;;;20.50;99.90;;;;;;5059136;28;20191;-83
2022/10/17 12:49:44;;;;;;;23.60;7.40;;;20.50;99.90;;;;;;5062529;28;20201;-79
2022/10/17 12:52:26;;;;;;;19.60;5.57;;;20.60;99.90;;;;;;5063058;28;20690;-88
2022/10/17 12:55:05;;;;;;;10.93;5.18;;;20.70;99.90;;;;;;5042951;28;20168;-78
2022/10/17 12:57:42;;;;;;;5.28;4.82;;;20.90;99.90;;;;;;5033767;28;20211;-85
2022/10/17 13:00:41;;;;;;;10.07;5.53;;;21.10;99.90;;;;;;5036402;28;20666;-79
2022/10/17 13:03:23;;;;;;;6.63;5.38;;;21.20;99.90;;;;;;5054938;28;20171;-80
2022/10/17 13:05:55;;;;;;;10.27;5.78;;;21.20;99.90;;;;;;5052939;28;20191;-82
2022/10/17 13:08:29;;;;;;;8.45;5.43;;;21.30;99.90;;;;;;5054622;28;20680;-87